»·PEaware :: SKY261 KSBP-KOAR

SKY261 :: KSBP-KOAR

FLIGHT INFORMATION

Flight Status: Arrived
Operator:
Sky High Charters
More flights by this operator :: More flights under this callsign
Pilot: Brian K. (18535)
Aircraft: Unknown
(DA62)
More flights by this aircraft type
Origin: KSBP San Luis Co Regl
United States
Destination: KOAR Marina
United States
More flights between these airports :: More routes between these airports
Route: CREPE3 PRB V248 SARDO ZURET
File this flight plan on PilotEdge
Remarks: SCENARIO 4
Altitude:
(Current/Filed)
8,000ft
Speed:
(Current/Filed)
160kts
Departed: 04-Feb-19 05:51 PM
Arrived: 04-Feb-19 06:42 PM
Distance/Time
Traveled:
102nm/0:51
Distance/Time
To Go:
Arrived

Flight Plot

Page will automatically refresh every two minutes.

Flight plan parsing failed; only flown route is shown


Map Options




Map Legend


Flown Route
Filed Route
Departure Airport
Arrival Airport
Navaid (VOR, NDB)
Fix

Horizontal Profiles

Position Reports

Time Latitude Longitude Heading Altitude Ground
Speed
04-Feb-19 17:32 35.238867 -120.638660 270 215ft 0kts
04-Feb-19 17:33 35.238867 -120.638660 270 215ft 0kts
04-Feb-19 17:34 35.238867 -120.638660 270 215ft 0kts
04-Feb-19 17:35 35.238867 -120.638660 270 215ft 0kts
04-Feb-19 17:36 35.238867 -120.638660 270 215ft 0kts
04-Feb-19 17:37 35.238867 -120.638660 270 215ft 0kts
04-Feb-19 17:38 35.238867 -120.638660 270 215ft 0kts
04-Feb-19 17:39 35.238867 -120.638660 270 215ft 0kts
04-Feb-19 17:40 35.238867 -120.638660 270 215ft 0kts
04-Feb-19 17:41 35.238867 -120.638660 270 215ft 0kts
04-Feb-19 17:42 35.238867 -120.638675 266 215ft 0kts
04-Feb-19 17:43 35.238682 -120.638807 180 215ft 0kts
04-Feb-19 17:44 35.237927 -120.638883 188 215ft 7kts
04-Feb-19 17:45 35.236669 -120.637684 126 215ft 5kts
04-Feb-19 17:46 35.235393 -120.635464 124 215ft 7kts
04-Feb-19 17:47 35.234154 -120.633250 124 215ft 9kts
04-Feb-19 17:48 35.233284 -120.632225 210 215ft 0kts
04-Feb-19 17:49 35.232857 -120.632951 303 215ft 0kts
04-Feb-19 17:50 35.244718 -120.655291 300 649ft 114kts
04-Feb-19 17:51 35.260957 -120.690147 302 1562ft 120kts
04-Feb-19 17:52 35.280019 -120.722886 304 2458ft 117kts
04-Feb-19 17:53 35.298929 -120.754757 304 3349ft 117kts
04-Feb-19 17:54 35.317996 -120.786853 304 4247ft 117kts
04-Feb-19 17:56 35.336954 -120.818771 304 5149ft 117kts
04-Feb-19 17:57 35.357104 -120.852668 307 5859ft 127kts
04-Feb-19 17:58 35.390724 -120.843804 27 6554ft 138kts
04-Feb-19 17:59 35.423603 -120.818904 28 7255ft 140kts
04-Feb-19 18:00 35.456516 -120.793638 27 7947ft 141kts
04-Feb-19 18:01 35.492840 -120.765775 28 7990ft 161kts
04-Feb-19 18:02 35.530245 -120.736986 28 7980ft 160kts
04-Feb-19 18:03 35.567937 -120.707936 29 7977ft 159kts
04-Feb-19 18:04 35.605187 -120.679205 28 7977ft 157kts
04-Feb-19 18:05 35.642177 -120.650640 28 7977ft 156kts
04-Feb-19 18:06 35.680603 -120.631809 345 7980ft 151kts
04-Feb-19 18:07 35.721195 -120.646681 340 7976ft 159kts
04-Feb-19 18:08 35.763681 -120.663670 340 7985ft 161kts
04-Feb-19 18:09 35.806272 -120.680694 340 7989ft 161kts
04-Feb-19 18:10 35.848323 -120.697509 340 7993ft 160kts
04-Feb-19 18:11 35.890510 -120.714400 340 7996ft 159kts
04-Feb-19 18:12 35.932423 -120.731199 340 8001ft 158kts
04-Feb-19 18:13 35.973893 -120.747831 340 8005ft 157kts
04-Feb-19 18:14 36.015124 -120.764354 339 8008ft 156kts
04-Feb-19 18:15 36.056611 -120.780988 337 8021ft 158kts
04-Feb-19 18:16 36.095148 -120.803492 308 8043ft 151kts
04-Feb-19 18:16 36.118461 -120.832519 307 8044ft 151kts
04-Feb-19 18:17 36.147762 -120.869221 306 8039ft 150kts
04-Feb-19 18:19 36.181840 -120.911992 306 8032ft 150kts
04-Feb-19 18:19 36.206086 -120.942452 306 8028ft 150kts
04-Feb-19 18:20 36.235385 -120.979319 306 7931ft 154kts
04-Feb-19 18:21 36.265725 -121.017506 307 7482ft 158kts
04-Feb-19 18:22 36.298515 -121.060347 310 6264ft 174kts
04-Feb-19 18:23 36.328823 -121.097351 308 5574ft 163kts
04-Feb-19 18:24 36.356663 -121.142315 291 4941ft 128kts
04-Feb-19 18:25 36.382861 -121.177664 324 4654ft 151kts
04-Feb-19 18:26 36.412114 -121.210211 310 4967ft 140kts
04-Feb-19 18:27 36.441285 -121.244801 311 4988ft 147kts
04-Feb-19 18:28 36.471012 -121.280122 311 4996ft 150kts
04-Feb-19 18:29 36.501451 -121.316462 311 4994ft 152kts
04-Feb-19 18:30 36.528030 -121.357390 300 4512ft 148kts
04-Feb-19 18:31 36.550271 -121.397594 300 4493ft 140kts
04-Feb-19 18:32 36.572727 -121.438199 300 4126ft 143kts
04-Feb-19 18:33 36.595207 -121.478887 300 3796ft 143kts
04-Feb-19 18:34 36.617691 -121.519641 300 3687ft 146kts
04-Feb-19 18:35 36.640169 -121.560404 301 3180ft 142kts
04-Feb-19 18:36 36.662041 -121.600112 299 2888ft 137kts
04-Feb-19 18:37 36.667963 -121.645644 275 2114ft 127kts
04-Feb-19 18:38 36.671902 -121.685723 274 1437ft 115kts
04-Feb-19 18:39 36.675403 -121.721331 271 784ft 95kts
04-Feb-19 18:40 36.676323 -121.751509 297 319ft 87kts
04-Feb-19 18:41 36.683929 -121.766384 288 141ft 11kts
04-Feb-19 18:42 36.683557 -121.766980 211 141ft 1kts
04-Feb-19 18:43 36.681643 -121.765204 120 141ft 13kts
04-Feb-19 18:44 36.680544 -121.763940 122 141ft 0kts
04-Feb-19 18:45 36.680544 -121.763940 122 141ft 0kts
04-Feb-19 18:46 36.680544 -121.763940 122 141ft 0kts
04-Feb-19 18:47 36.680544 -121.763940 122 141ft 0kts

Navigation Log

Ident Type
Flight plan parsing failed, navigation log unavailable